createdAt,value
2023-05-09T00:01:32.342Z,3.23
2023-05-09T00:04:00.423Z,4.27
2023-05-09T00:06:28.072Z,4.00
2023-05-09T00:08:55.851Z,4.47
2023-05-09T00:11:23.271Z,4.23
2023-05-09T00:13:50.934Z,5.30
2023-05-09T00:16:20.662Z,4.07
2023-05-09T00:18:48.124Z,4.20
2023-05-09T00:21:15.459Z,6.40
2023-05-09T00:23:42.977Z,5.17
2023-05-09T00:26:11.089Z,4.73
2023-05-09T00:28:40.502Z,5.33
2023-05-09T00:31:07.882Z,5.73
2023-05-09T00:33:35.158Z,6.50
2023-05-09T00:36:02.414Z,5.17
2023-05-09T00:38:29.750Z,6.00
2023-05-09T00:40:57.050Z,5.63
2023-05-09T00:43:24.420Z,6.80
2023-05-09T00:45:52.048Z,4.93
2023-05-09T00:48:19.509Z,5.17
2023-05-09T00:50:52.671Z,5.00
2023-05-09T00:53:20.775Z,5.27
2023-05-09T00:55:48.246Z,6.10
2023-05-09T00:58:15.857Z,6.23
2023-05-09T01:00:43.475Z,5.97
2023-05-09T01:03:11.162Z,6.70
2023-05-09T01:05:51.038Z,5.83
2023-05-09T01:08:22.491Z,6.07
2023-05-09T01:10:55.610Z,6.40
2023-05-09T01:13:33.268Z,7.30
2023-05-09T01:16:06.154Z,6.20
2023-05-09T01:18:38.067Z,7.03
2023-05-09T01:21:14.265Z,6.00
2023-05-09T01:23:44.639Z,6.27
2023-05-09T01:26:18.463Z,6.13
2023-05-09T01:28:58.105Z,7.87
2023-05-09T01:31:25.953Z,6.60
2023-05-09T01:33:54.998Z,6.13
2023-05-09T01:36:22.282Z,6.80
2023-05-09T01:38:50.964Z,6.43
2023-05-09T01:41:18.868Z,6.93
2023-05-09T01:43:48.085Z,6.50
2023-05-09T01:46:17.805Z,6.80
2023-05-09T01:48:46.321Z,6.40
2023-05-09T01:51:14.508Z,8.47
2023-05-09T01:53:42.890Z,6.90
2023-05-09T01:56:10.515Z,6.40
2023-05-09T01:58:40.049Z,6.10
2023-05-09T02:01:07.530Z,7.00
2023-05-09T02:03:36.765Z,6.90
2023-05-09T02:06:04.540Z,6.80
2023-05-09T02:08:32.770Z,7.03
2023-05-09T02:11:01.116Z,6.53
2023-05-09T02:13:28.455Z,7.07
2023-05-09T02:15:56.044Z,6.73
2023-05-09T02:18:23.609Z,7.53
2023-05-09T02:20:50.906Z,7.43
2023-05-09T02:23:18.429Z,7.07
2023-05-09T02:25:47.200Z,6.27
2023-05-09T02:28:14.820Z,6.97
2023-05-09T02:30:43.552Z,6.87
2023-05-09T02:33:12.321Z,7.93
2023-05-09T02:35:42.561Z,6.50
2023-05-09T02:38:09.942Z,6.73
2023-05-09T02:40:37.259Z,7.50
2023-05-09T02:43:04.542Z,6.37
2023-05-09T02:45:32.240Z,6.70
2023-05-09T02:47:59.583Z,6.53
2023-05-09T02:50:26.946Z,6.13
2023-05-09T02:52:54.398Z,6.33
2023-05-09T02:55:21.685Z,6.43
2023-05-09T02:57:51.949Z,7.37
2023-05-09T03:00:27.960Z,6.43
2023-05-09T03:02:55.975Z,6.27
2023-05-09T03:05:23.517Z,6.53
2023-05-09T03:07:51.649Z,5.93
2023-05-09T03:10:19.023Z,6.67
2023-05-09T03:12:46.354Z,5.97
2023-05-09T03:15:14.062Z,6.23
2023-05-09T03:17:42.668Z,6.23
2023-05-09T03:20:10.446Z,6.47
2023-05-09T03:22:37.912Z,6.33
2023-05-09T03:25:08.325Z,7.47
2023-05-09T03:27:35.735Z,5.53
2023-05-09T03:30:05.065Z,6.07
2023-05-09T03:32:32.422Z,5.50
2023-05-09T03:34:59.709Z,5.90
2023-05-09T03:37:27.530Z,5.70
2023-05-09T03:39:55.138Z,6.20
2023-05-09T03:42:23.127Z,5.60
2023-05-09T03:44:53.017Z,6.03
2023-05-09T03:47:21.857Z,6.53
2023-05-09T03:49:49.407Z,5.33
2023-05-09T03:52:20.266Z,5.80
2023-05-09T03:54:48.307Z,5.70
2023-05-09T03:57:16.185Z,5.37
2023-05-09T03:59:44.351Z,5.20
2023-05-09T04:02:13.945Z,5.63
2023-05-09T04:04:41.324Z,5.83
2023-05-09T04:07:09.733Z,6.00
2023-05-09T04:09:37.157Z,5.17
2023-05-09T04:12:04.643Z,4.93
2023-05-09T04:14:32.557Z,4.90
2023-05-09T04:17:00.118Z,5.37
2023-05-09T04:19:27.596Z,5.67
2023-05-09T04:21:55.121Z,5.90
2023-05-09T04:24:22.547Z,5.47
2023-05-09T04:26:51.003Z,5.17
2023-05-09T04:29:21.923Z,5.30
2023-05-09T04:31:53.658Z,5.20
2023-05-09T04:34:24.859Z,5.33
2023-05-09T04:36:53.009Z,5.03
2023-05-09T04:39:20.848Z,5.13
2023-05-09T04:41:57.304Z,5.13
2023-05-09T04:44:24.901Z,4.87
2023-05-09T04:46:52.368Z,4.57
2023-05-09T04:49:19.644Z,5.50
2023-05-09T04:51:46.936Z,4.87
2023-05-09T04:54:14.250Z,5.00
2023-05-09T04:56:41.923Z,4.63
2023-05-09T04:59:09.268Z,5.00
2023-05-09T05:01:36.896Z,4.33
2023-05-09T05:04:04.432Z,4.83
2023-05-09T05:06:33.452Z,4.93
2023-05-09T05:09:01.104Z,4.60
2023-05-09T05:11:28.670Z,4.43
2023-05-09T05:13:56.125Z,4.40
2023-05-09T05:16:24.000Z,4.53
2023-05-09T05:18:51.324Z,4.43
2023-05-09T05:21:20.276Z,4.47
2023-05-09T05:23:47.780Z,4.73
2023-05-09T05:26:15.729Z,4.70
2023-05-09T05:28:43.739Z,4.53
2023-05-09T05:31:11.184Z,4.90
2023-05-09T05:33:38.529Z,4.67
2023-05-09T05:36:06.448Z,3.83
2023-05-09T05:38:34.019Z,4.50
2023-05-09T05:41:01.412Z,4.53
2023-05-09T05:43:30.601Z,4.60
2023-05-09T05:45:57.986Z,4.37
2023-05-09T05:48:26.789Z,4.07
2023-05-09T05:50:55.013Z,4.10
2023-05-09T05:53:26.003Z,3.50
2023-05-09T05:55:53.287Z,4.37
2023-05-09T05:58:21.290Z,3.67
2023-05-09T06:00:48.675Z,3.80
2023-05-09T06:03:16.539Z,4.73
2023-05-09T06:06:10.006Z,4.13
2023-05-09T06:08:37.342Z,4.40
2023-05-09T06:11:05.956Z,3.70
2023-05-09T06:13:33.994Z,4.23
2023-05-09T06:16:18.693Z,4.70
2023-05-09T06:18:49.877Z,4.60
2023-05-09T06:21:17.236Z,4.40
2023-05-09T06:23:57.829Z,4.67
2023-05-09T06:26:31.827Z,4.03
2023-05-09T06:28:59.313Z,4.63
2023-05-09T06:31:26.975Z,4.17
2023-05-09T06:33:54.505Z,4.20
2023-05-09T06:36:21.963Z,4.03
2023-05-09T06:38:49.450Z,4.03
2023-05-09T06:41:16.830Z,3.90
2023-05-09T06:43:44.153Z,3.90
2023-05-09T06:46:11.659Z,4.23
2023-05-09T06:48:39.015Z,4.00
2023-05-09T06:51:06.311Z,4.03
2023-05-09T06:53:33.582Z,4.07
2023-05-09T06:56:01.130Z,4.30
2023-05-09T06:58:29.025Z,4.73
2023-05-09T07:00:56.364Z,3.87
2023-05-09T07:03:23.711Z,4.23
2023-05-09T07:05:52.424Z,4.33
2023-05-09T07:08:19.774Z,4.13
2023-05-09T07:10:47.026Z,3.90
2023-05-09T07:13:14.414Z,3.83
2023-05-09T07:15:42.916Z,4.13
2023-05-09T07:18:10.855Z,4.00
2023-05-09T07:20:38.199Z,4.20
2023-05-09T07:23:06.025Z,3.63
2023-05-09T07:25:33.532Z,4.10
2023-05-09T07:28:01.029Z,3.70
2023-05-09T07:30:28.449Z,3.90
2023-05-09T07:32:55.922Z,4.00
2023-05-09T07:35:23.476Z,3.53
2023-05-09T07:37:50.769Z,3.60
2023-05-09T07:40:18.539Z,3.60
2023-05-09T07:42:49.753Z,2.90
2023-05-09T07:45:18.858Z,3.37
2023-05-09T07:47:47.243Z,3.37
2023-05-09T07:50:14.604Z,3.77
2023-05-09T07:52:41.961Z,3.57
2023-05-09T07:55:10.017Z,3.37
2023-05-09T07:57:38.576Z,2.80
2023-05-09T08:00:06.648Z,3.23
2023-05-09T08:02:41.083Z,2.80
2023-05-09T08:05:11.356Z,2.80
2023-05-09T08:07:39.292Z,2.77
2023-05-09T08:10:08.057Z,2.90
2023-05-09T08:12:35.448Z,3.23
2023-05-09T08:15:03.133Z,3.00
2023-05-09T08:17:32.357Z,3.00
2023-05-09T08:19:59.686Z,2.73
2023-05-09T08:22:26.996Z,3.10
2023-05-09T08:24:54.236Z,2.77
2023-05-09T08:27:21.495Z,3.00
2023-05-09T08:29:48.739Z,2.87
2023-05-09T08:32:16.308Z,2.47
2023-05-09T08:34:43.732Z,2.70
2023-05-09T08:37:12.932Z,2.73
2023-05-09T08:39:42.363Z,2.93
2023-05-09T08:42:11.559Z,2.60
2023-05-09T08:44:38.845Z,2.67
2023-05-09T08:47:07.053Z,2.83
2023-05-09T08:49:35.657Z,3.20
2023-05-09T08:52:03.266Z,2.50
2023-05-09T08:54:30.789Z,2.93
2023-05-09T08:56:58.258Z,2.93
2023-05-09T08:59:25.929Z,2.73
2023-05-09T09:01:54.906Z,2.70
2023-05-09T09:04:23.099Z,3.00
2023-05-09T09:06:50.719Z,3.23
2023-05-09T09:09:18.078Z,3.27
2023-05-09T09:11:46.086Z,3.20
2023-05-09T09:14:16.476Z,3.00
2023-05-09T09:16:45.324Z,3.80
2023-05-09T09:19:13.855Z,3.67
2023-05-09T09:21:44.671Z,3.10
2023-05-09T09:24:13.493Z,3.20
2023-05-09T09:26:46.117Z,3.13
2023-05-09T09:29:13.899Z,3.03
2023-05-09T09:31:44.450Z,3.00
2023-05-09T09:34:11.900Z,2.50
2023-05-09T09:36:39.190Z,3.17
2023-05-09T09:39:06.801Z,2.70
2023-05-09T09:41:38.605Z,3.30
2023-05-09T09:44:13.878Z,2.63
2023-05-09T09:46:44.874Z,3.27
2023-05-09T09:49:13.786Z,2.53
2023-05-09T09:51:44.536Z,3.23
2023-05-09T09:54:12.839Z,3.00
2023-05-09T09:56:44.924Z,3.37
2023-05-09T09:59:12.381Z,3.17
2023-05-09T10:01:55.009Z,3.40
2023-05-09T10:04:22.408Z,3.00
2023-05-09T10:06:56.531Z,3.60
2023-05-09T10:09:24.735Z,2.83
2023-05-09T10:11:52.779Z,2.73
2023-05-09T10:14:21.503Z,2.90
2023-05-09T10:16:49.672Z,2.87
2023-05-09T10:19:19.043Z,2.63
2023-05-09T10:21:51.452Z,2.90
2023-05-09T10:24:22.775Z,3.40
2023-05-09T10:26:50.871Z,2.80
2023-05-09T10:29:22.986Z,3.23
2023-05-09T10:31:55.424Z,3.00
2023-05-09T10:34:23.300Z,3.00
2023-05-09T10:36:50.876Z,2.57
2023-05-09T10:39:18.296Z,2.47
2023-05-09T10:41:45.737Z,2.87
2023-05-09T10:44:13.232Z,2.90
2023-05-09T10:46:40.605Z,2.80
2023-05-09T10:49:08.175Z,2.87
2023-05-09T10:51:35.557Z,2.67
2023-05-09T10:54:13.686Z,2.93
2023-05-09T10:56:41.171Z,2.80
2023-05-09T10:59:28.428Z,2.90
2023-05-09T11:02:01.085Z,3.07
2023-05-09T11:04:28.441Z,2.97
2023-05-09T11:06:57.643Z,2.90
2023-05-09T11:09:39.271Z,3.13
2023-05-09T11:12:06.573Z,2.80
2023-05-09T11:14:39.464Z,2.97
2023-05-09T11:17:10.665Z,2.80
2023-05-09T11:19:39.966Z,2.50
2023-05-09T11:22:33.625Z,2.73
2023-05-09T11:25:08.908Z,2.90
2023-05-09T11:27:43.685Z,2.47
2023-05-09T11:30:18.238Z,3.10
2023-05-09T11:32:45.582Z,2.50
2023-05-09T11:35:20.930Z,2.50
2023-05-09T11:37:54.643Z,2.63
2023-05-09T11:40:23.203Z,3.17
2023-05-09T11:42:57.985Z,3.10
2023-05-09T11:45:27.521Z,3.33
2023-05-09T11:47:55.040Z,2.83
2023-05-09T11:50:22.433Z,2.57
2023-05-09T11:52:50.562Z,3.00
2023-05-09T11:55:19.374Z,2.80
2023-05-09T11:57:49.177Z,2.50
2023-05-09T12:00:17.532Z,2.77
2023-05-09T12:02:46.124Z,2.40
2023-05-09T12:05:14.972Z,2.93
2023-05-09T12:07:43.188Z,2.70
2023-05-09T12:10:12.663Z,2.70
2023-05-09T12:12:44.804Z,2.40
2023-05-09T12:15:13.597Z,2.80
2023-05-09T12:17:42.408Z,2.50
2023-05-09T12:20:10.121Z,2.80
2023-05-09T12:22:37.770Z,2.73
2023-05-09T12:25:09.546Z,2.73
2023-05-09T12:27:37.605Z,2.63
2023-05-09T12:30:10.195Z,2.50
2023-05-09T12:32:39.604Z,2.13
2023-05-09T12:35:11.324Z,2.33
2023-05-09T12:37:39.320Z,2.40
2023-05-09T12:40:15.934Z,2.23
2023-05-09T12:42:47.074Z,2.07
2023-05-09T12:45:14.698Z,2.10
2023-05-09T12:47:42.452Z,2.27
2023-05-09T12:50:12.158Z,1.97
2023-05-09T12:52:58.900Z,2.00
2023-05-09T12:55:31.746Z,2.30
2023-05-09T12:58:00.221Z,2.20
2023-05-09T13:00:27.722Z,1.97
2023-05-09T13:02:55.209Z,2.33
2023-05-09T13:05:23.231Z,2.00
2023-05-09T13:07:55.144Z,1.93
2023-05-09T13:10:27.491Z,2.00
2023-05-09T13:12:55.177Z,2.00
2023-05-09T13:15:23.241Z,2.40
2023-05-09T13:17:52.251Z,2.00
2023-05-09T13:20:19.888Z,1.83
2023-05-09T13:22:47.882Z,2.23
2023-05-09T13:25:16.204Z,1.93
2023-05-09T13:27:43.532Z,1.90
2023-05-09T13:30:11.084Z,1.90
2023-05-09T13:32:38.416Z,2.20
2023-05-09T13:35:08.036Z,1.90
2023-05-09T13:37:36.019Z,1.87
2023-05-09T13:40:04.272Z,1.93
2023-05-09T13:42:31.899Z,1.90
2023-05-09T13:44:59.133Z,1.70
2023-05-09T13:47:26.931Z,1.87
2023-05-09T13:49:54.325Z,1.97
2023-05-09T13:52:21.738Z,1.90
2023-05-09T13:54:48.979Z,1.80
2023-05-09T13:57:16.326Z,2.00
2023-05-09T13:59:43.588Z,1.80
2023-05-09T14:02:11.066Z,1.77
2023-05-09T14:04:38.531Z,2.00
2023-05-09T14:07:05.965Z,1.87
2023-05-09T14:09:38.160Z,2.23
2023-05-09T14:12:05.555Z,2.03
2023-05-09T14:14:32.849Z,2.20
2023-05-09T14:17:01.413Z,1.80
2023-05-09T14:19:30.279Z,1.83
2023-05-09T14:21:57.581Z,2.17
2023-05-09T14:24:24.943Z,2.10
2023-05-09T14:26:52.417Z,1.83
2023-05-09T14:29:19.685Z,2.20
2023-05-09T14:31:47.048Z,1.97
2023-05-09T14:34:14.368Z,2.00
2023-05-09T14:36:41.658Z,1.83
2023-05-09T14:39:08.947Z,1.90
2023-05-09T14:41:36.304Z,2.17
2023-05-09T14:44:03.640Z,2.13
2023-05-09T14:46:31.137Z,1.93
2023-05-09T14:49:03.976Z,1.60
2023-05-09T14:51:33.316Z,2.17
2023-05-09T14:54:02.497Z,2.00
2023-05-09T14:56:31.212Z,2.43
2023-05-09T14:58:58.558Z,2.13
2023-05-09T15:01:25.948Z,1.80
2023-05-09T15:03:53.456Z,2.17
2023-05-09T15:06:20.885Z,1.90
2023-05-09T15:08:48.179Z,2.30
2023-05-09T15:11:15.476Z,2.50
2023-05-09T15:13:42.745Z,2.40
2023-05-09T15:16:10.109Z,2.30
2023-05-09T15:18:37.571Z,2.40
2023-05-09T15:21:05.108Z,2.53
2023-05-09T15:23:32.565Z,2.07
2023-05-09T15:26:00.160Z,2.10
2023-05-09T15:28:27.503Z,1.70
2023-05-09T15:30:54.936Z,2.03
2023-05-09T15:33:22.242Z,2.40
2023-05-09T15:35:50.148Z,1.77
2023-05-09T15:38:18.431Z,2.10
2023-05-09T15:40:45.692Z,1.90
2023-05-09T15:43:13.113Z,1.77
2023-05-09T15:45:45.464Z,2.10
2023-05-09T15:48:16.743Z,1.73
2023-05-09T15:50:45.143Z,1.80
2023-05-09T15:53:12.474Z,2.20
2023-05-09T15:55:40.029Z,1.70
2023-05-09T15:58:08.513Z,1.73
2023-05-09T16:00:36.117Z,1.67
2023-05-09T16:03:03.501Z,1.47
2023-05-09T16:05:31.160Z,1.53
2023-05-09T16:07:58.474Z,1.47
2023-05-09T16:10:26.104Z,1.70
2023-05-09T16:12:53.526Z,1.50
2023-05-09T16:15:20.915Z,1.70
2023-05-09T16:17:48.511Z,1.60
2023-05-09T16:20:16.300Z,1.60
2023-05-09T16:22:43.885Z,1.30
2023-05-09T16:25:11.670Z,1.43
2023-05-09T16:27:39.142Z,1.70
2023-05-09T16:30:06.721Z,1.60
2023-05-09T16:32:34.077Z,1.50
2023-05-09T16:35:01.405Z,1.50
2023-05-09T16:37:29.822Z,1.47
2023-05-09T16:39:57.827Z,1.77
2023-05-09T16:42:25.142Z,1.40
2023-05-09T16:44:52.649Z,1.60
2023-05-09T16:47:19.978Z,1.57
2023-05-09T16:49:47.320Z,1.57
2023-05-09T16:52:15.343Z,1.53
2023-05-09T16:54:42.630Z,1.70
2023-05-09T16:57:09.971Z,1.70
2023-05-09T16:59:37.383Z,1.47
2023-05-09T17:02:05.185Z,1.40
2023-05-09T17:04:33.888Z,1.50
2023-05-09T17:07:02.750Z,1.53
2023-05-09T17:09:30.331Z,1.57
2023-05-09T17:11:57.647Z,1.43
2023-05-09T17:14:25.099Z,1.67
2023-05-09T17:16:52.907Z,1.40
2023-05-09T17:19:23.272Z,1.50
2023-05-09T17:21:50.846Z,1.57
2023-05-09T17:24:18.374Z,1.23
2023-05-09T17:26:45.781Z,1.60
2023-05-09T17:29:13.192Z,1.47
2023-05-09T17:31:40.780Z,1.50
2023-05-09T17:34:08.072Z,1.50
2023-05-09T17:36:35.569Z,1.50
2023-05-09T17:39:02.904Z,1.27
2023-05-09T17:41:30.234Z,1.30
2023-05-09T17:43:57.730Z,1.50
2023-05-09T17:46:25.293Z,1.40
2023-05-09T17:48:52.812Z,1.53
2023-05-09T17:51:20.184Z,1.10
2023-05-09T17:53:47.471Z,1.63
2023-05-09T17:56:14.766Z,1.43
2023-05-09T17:58:42.185Z,1.30
2023-05-09T18:01:09.899Z,1.40
2023-05-09T18:03:37.496Z,1.50
2023-05-09T18:06:05.056Z,1.30
2023-05-09T18:08:32.436Z,1.53
2023-05-09T18:10:59.773Z,1.60
2023-05-09T18:13:27.196Z,1.53
2023-05-09T18:15:59.378Z,1.50
2023-05-09T18:18:32.324Z,1.50
2023-05-09T18:20:59.862Z,1.50
2023-05-09T18:23:27.471Z,1.67
2023-05-09T18:25:55.136Z,1.30
2023-05-09T18:28:25.235Z,1.60
2023-05-09T18:30:54.537Z,1.67
2023-05-09T18:33:26.156Z,1.40
2023-05-09T18:35:54.281Z,1.83
2023-05-09T18:38:21.954Z,1.20
2023-05-09T18:40:51.730Z,1.60
2023-05-09T18:43:21.462Z,1.47
2023-05-09T18:45:49.135Z,1.67
2023-05-09T18:48:17.053Z,1.83
2023-05-09T18:50:44.909Z,1.37
2023-05-09T18:53:12.445Z,2.10
2023-05-09T18:55:40.251Z,1.60
2023-05-09T18:58:07.904Z,1.73
2023-05-09T19:00:36.064Z,1.60
2023-05-09T19:03:03.568Z,1.73
2023-05-09T19:05:30.900Z,1.70
2023-05-09T19:07:59.339Z,1.60
2023-05-09T19:10:26.726Z,1.77
2023-05-09T19:12:54.106Z,1.90
2023-05-09T19:15:23.189Z,1.53
2023-05-09T19:17:50.513Z,1.60
2023-05-09T19:20:18.366Z,1.77
2023-05-09T19:22:51.264Z,1.80
2023-05-09T19:25:18.941Z,1.60
2023-05-09T19:27:46.620Z,1.63
2023-05-09T19:30:17.960Z,1.67
2023-05-09T19:32:45.426Z,1.50
2023-05-09T19:35:12.859Z,1.70
2023-05-09T19:37:40.475Z,1.70
2023-05-09T19:40:07.981Z,1.60
2023-05-09T19:42:36.840Z,1.70
2023-05-09T19:45:04.891Z,1.50
2023-05-09T19:47:32.257Z,1.37
2023-05-09T19:50:00.137Z,1.57
2023-05-09T19:52:29.514Z,1.60
2023-05-09T19:54:56.803Z,1.80
2023-05-09T19:57:24.082Z,1.60
2023-05-09T19:59:52.215Z,1.50
2023-05-09T20:02:19.506Z,1.50
2023-05-09T20:04:49.819Z,1.80
2023-05-09T20:07:17.893Z,1.70
2023-05-09T20:09:45.291Z,1.80
2023-05-09T20:12:13.288Z,1.80
2023-05-09T20:14:40.565Z,1.73
2023-05-09T20:17:08.112Z,2.10
2023-05-09T20:19:35.544Z,1.80
2023-05-09T20:22:03.665Z,1.50
2023-05-09T20:24:31.397Z,1.63
2023-05-09T20:26:59.080Z,1.90
2023-05-09T20:29:26.503Z,2.60
2023-05-09T20:31:53.866Z,1.87
2023-05-09T20:34:22.784Z,1.63
2023-05-09T20:36:53.754Z,1.83
2023-05-09T20:39:23.375Z,1.90
2023-05-09T20:41:52.127Z,1.73
2023-05-09T20:44:19.629Z,1.80
2023-05-09T20:46:46.909Z,1.90
2023-05-09T20:49:15.225Z,2.43
2023-05-09T20:51:42.787Z,2.00
2023-05-09T20:54:10.169Z,3.43
2023-05-09T20:56:37.447Z,2.57
2023-05-09T20:59:04.783Z,2.87
2023-05-09T21:01:34.298Z,2.30
2023-05-09T21:04:01.907Z,2.50
2023-05-09T21:06:29.247Z,2.67
2023-05-09T21:08:56.657Z,2.70
2023-05-09T21:11:23.961Z,3.10
2023-05-09T21:13:51.478Z,2.70
2023-05-09T21:16:18.775Z,3.20
2023-05-09T21:18:46.168Z,3.07
2023-05-09T21:21:13.493Z,3.20
2023-05-09T21:23:40.843Z,3.97
2023-05-09T21:26:08.314Z,2.83
2023-05-09T21:28:36.203Z,2.67
2023-05-09T21:31:03.662Z,3.23
2023-05-09T21:33:31.205Z,2.83
2023-05-09T21:35:59.206Z,3.33
2023-05-09T21:38:26.495Z,2.80
2023-05-09T21:40:53.858Z,3.33
2023-05-09T21:43:21.210Z,3.70
2023-05-09T21:45:48.455Z,3.17
2023-05-09T21:48:15.884Z,3.23
2023-05-09T21:50:46.368Z,2.83
2023-05-09T21:53:14.244Z,2.70
2023-05-09T21:55:41.556Z,2.97
2023-05-09T21:58:08.895Z,3.33
2023-05-09T22:00:36.247Z,2.87
2023-05-09T22:03:03.680Z,3.13
2023-05-09T22:05:31.316Z,3.63
2023-05-09T22:07:58.608Z,3.40
2023-05-09T22:10:25.935Z,3.60
2023-05-09T22:12:53.379Z,3.23
2023-05-09T22:15:20.905Z,3.40
2023-05-09T22:17:48.245Z,3.30
2023-05-09T22:20:15.816Z,3.63
2023-05-09T22:22:43.217Z,3.50
2023-05-09T22:25:10.556Z,3.43
2023-05-09T22:27:37.840Z,3.40
2023-05-09T22:30:05.933Z,3.37
2023-05-09T22:32:33.415Z,3.57
2023-05-09T22:35:00.696Z,3.27
2023-05-09T22:37:28.078Z,3.27
2023-05-09T22:39:55.701Z,4.10
2023-05-09T22:42:23.025Z,3.63
2023-05-09T22:44:50.768Z,4.17
2023-05-09T22:47:18.018Z,3.80
2023-05-09T22:49:45.977Z,3.33
2023-05-09T22:52:13.471Z,3.80
2023-05-09T22:54:40.894Z,3.37
2023-05-09T22:57:08.229Z,3.30
2023-05-09T22:59:37.018Z,3.90
2023-05-09T23:02:04.899Z,3.43
2023-05-09T23:04:32.239Z,3.57
2023-05-09T23:06:59.578Z,3.27
2023-05-09T23:09:26.909Z,3.37
2023-05-09T23:11:54.934Z,3.70
2023-05-09T23:14:22.303Z,3.33
2023-05-09T23:16:50.666Z,3.20
2023-05-09T23:19:18.037Z,3.73
2023-05-09T23:21:45.298Z,3.43
2023-05-09T23:24:12.881Z,3.50
2023-05-09T23:26:40.197Z,3.60
2023-05-09T23:29:07.482Z,3.47
2023-05-09T23:31:34.896Z,3.33
2023-05-09T23:34:02.163Z,3.00
2023-05-09T23:36:29.664Z,2.63
2023-05-09T23:38:57.408Z,2.83
2023-05-09T23:41:24.709Z,3.00
2023-05-09T23:43:51.976Z,3.10
2023-05-09T23:46:19.323Z,3.30
2023-05-09T23:48:48.066Z,3.07
2023-05-09T23:51:15.781Z,3.60
2023-05-09T23:53:43.227Z,3.53
2023-05-09T23:56:10.564Z,4.20
2023-05-09T23:58:38.018Z,3.57
